Terminal Aerodrome Forecast
Issued by NWS Sterling, VA

Current Version | Previous Version | Graphics & Text | Print | Product List | Glossary On
Versions: 1 2 3 4 5 6 7 8 9 10 11 12 13 14 15 16 17 18 19 20 21 22 23 24
000
FTUS41 KLWX 061727
TAFDCA
TAF
KDCA 061727Z 0618/0718 02007KT P6SM RA OVC015
     FM062100 34006KT 6SM -SHRA OVC015
     FM070300 30005KT P6SM SCT008 OVC015
     FM070600 28005KT P6SM OVC008
     FM071100 34005KT P6SM BKN008
     FM071300 34006KT P6SM BKN020
     FM071500 32007KT P6SM BKN040=

USA.gov is the U.S. government's official web portal to all federal, state and local government web resources and services.